Time;durP1;ratioP1;P1;durP2;ratioP2;P2;SDS_P1;SDS_P2;PMS_P1;PMS_P2;Temp;Humidity;BMP_temperature;BMP_pressure;BME280_temperature;BME280_humidity;BME280_pressure;Samples;Min_cycle;Max_cycle;Signal;HPM_P1;HPM_P2
2023/11/09 00:01:20;;;;;;;4.20;1.90;;;12.70;96.70;;;;;;4916048;29;20062;-78
2023/11/09 00:03:48;;;;;;;4.80;2.22;;;12.70;96.70;;;;;;4932727;29;20506;-78
2023/11/09 00:06:18;;;;;;;5.15;1.73;;;12.60;96.70;;;;;;4917911;29;20142;-78
2023/11/09 00:08:46;;;;;;;5.20;2.03;;;12.60;96.70;;;;;;4926451;29;20114;-78
2023/11/09 00:11:14;;;;;;;6.43;2.65;;;12.60;96.70;;;;;;4915559;29;20055;-78
2023/11/09 00:13:43;;;;;;;6.45;2.95;;;12.60;96.70;;;;;;4912563;29;20099;-78
2023/11/09 00:16:13;;;;;;;7.55;3.78;;;12.60;96.70;;;;;;4932735;29;20047;-78
2023/11/09 00:18:41;;;;;;;8.73;6.07;;;12.50;96.70;;;;;;4915753;29;20865;-78
2023/11/09 00:21:09;;;;;;;6.93;4.20;;;12.50;96.70;;;;;;4939606;29;20083;-78
2023/11/09 00:23:37;;;;;;;6.75;4.10;;;12.50;96.70;;;;;;4915758;29;20414;-78
2023/11/09 00:26:06;;;;;;;8.60;4.03;;;12.50;96.70;;;;;;4914838;29;20580;-78
2023/11/09 00:28:34;;;;;;;7.50;4.32;;;12.40;96.70;;;;;;4932196;29;20597;-78
2023/11/09 00:31:04;;;;;;;7.18;4.75;;;12.30;96.70;;;;;;4915410;29;20044;-78
2023/11/09 00:33:33;;;;;;;10.68;5.10;;;12.20;96.70;;;;;;4914864;29;20669;-78
2023/11/09 00:36:00;;;;;;;7.68;4.28;;;12.30;96.70;;;;;;4900086;29;20115;-78
2023/11/09 00:38:28;;;;;;;10.27;5.30;;;12.40;96.70;;;;;;4913985;29;20043;-78
2023/11/09 00:40:57;;;;;;;10.40;4.40;;;12.40;96.70;;;;;;4899605;29;20588;-77
2023/11/09 00:43:26;;;;;;;15.05;5.03;;;12.40;96.70;;;;;;4915139;29;20047;-77
2023/11/09 00:45:54;;;;;;;7.45;4.78;;;12.40;96.70;;;;;;4896722;29;20874;-78
2023/11/09 00:48:23;;;;;;;9.90;4.88;;;12.40;96.70;;;;;;4893889;29;20384;-77
2023/11/09 00:50:53;;;;;;;9.30;4.55;;;12.40;96.70;;;;;;4914568;29;20048;-76
2023/11/09 00:53:21;;;;;;;9.90;5.20;;;12.40;96.70;;;;;;4912137;29;20062;-77
2023/11/09 00:55:49;;;;;;;10.40;5.50;;;12.40;96.70;;;;;;4911536;29;20843;-78
2023/11/09 00:58:17;;;;;;;9.20;5.65;;;12.40;96.70;;;;;;4896611;29;20052;-78
2023/11/09 01:00:45;;;;;;;10.38;5.00;;;12.40;96.70;;;;;;4908118;29;20241;-78
2023/11/09 01:03:13;;;;;;;10.00;4.95;;;12.40;96.70;;;;;;4912030;29;20052;-78
2023/11/09 01:05:43;;;;;;;9.80;5.45;;;12.40;96.70;;;;;;4937608;29;20498;-77
2023/11/09 01:08:11;;;;;;;8.43;5.25;;;12.40;96.70;;;;;;4912335;29;20050;-76
2023/11/09 01:10:39;;;;;;;8.20;4.95;;;12.40;96.70;;;;;;4920748;29;20043;-78
2023/11/09 01:13:07;;;;;;;9.95;5.45;;;12.50;96.70;;;;;;4917011;29;20077;-78
2023/11/09 01:15:35;;;;;;;9.35;5.50;;;12.40;96.70;;;;;;4899716;29;20082;-78
2023/11/09 01:18:05;;;;;;;9.93;5.45;;;12.30;96.70;;;;;;4911804;29;20114;-77
2023/11/09 01:20:34;;;;;;;8.02;4.75;;;12.30;96.70;;;;;;4903434;29;20047;-77
2023/11/09 01:23:06;;;;;;;7.30;4.72;;;12.40;96.70;;;;;;4911623;29;20048;-77
2023/11/09 01:25:34;;;;;;;8.02;5.30;;;12.40;96.70;;;;;;4923927;29;20494;-77
2023/11/09 01:28:02;;;;;;;8.60;5.18;;;12.40;96.70;;;;;;4934131;29;20078;-78
2023/11/09 01:30:31;;;;;;;6.68;5.40;;;12.40;96.70;;;;;;4920089;29;20126;-78
2023/11/09 01:32:58;;;;;;;9.63;5.18;;;12.30;96.70;;;;;;4921080;29;20043;-78
2023/11/09 01:35:26;;;;;;;10.20;5.65;;;12.30;96.70;;;;;;4902849;29;20445;-77
2023/11/09 01:37:54;;;;;;;9.60;5.72;;;12.40;96.70;;;;;;4911405;29;20052;-77
2023/11/09 01:40:24;;;;;;;8.90;5.60;;;12.40;96.70;;;;;;4911036;29;20495;-78
2023/11/09 01:42:52;;;;;;;9.23;5.28;;;12.40;96.70;;;;;;4895575;29;20755;-77
2023/11/09 01:45:20;;;;;;;10.35;6.03;;;12.40;96.70;;;;;;4910964;29;20155;-78
2023/11/09 01:47:48;;;;;;;10.85;5.43;;;12.40;96.70;;;;;;4902251;29;20088;-78
2023/11/09 01:50:17;;;;;;;7.78;5.72;;;12.40;96.70;;;;;;4911710;29;20044;-79
2023/11/09 01:52:45;;;;;;;10.70;5.30;;;12.40;96.70;;;;;;4911091;29;20398;-77
2023/11/09 01:55:14;;;;;;;12.93;5.97;;;12.40;96.70;;;;;;4907890;29;20058;-78
2023/11/09 01:57:43;;;;;;;7.07;4.95;;;12.40;96.70;;;;;;4915552;29;20063;-77
2023/11/09 02:00:13;;;;;;;12.20;5.85;;;12.40;96.70;;;;;;4908850;29;20051;-78
2023/11/09 02:02:42;;;;;;;7.97;5.55;;;12.40;96.70;;;;;;4910361;29;20138;-78
2023/11/09 02:05:11;;;;;;;8.50;5.50;;;12.40;96.70;;;;;;4911005;29;20047;-78
2023/11/09 02:07:40;;;;;;;8.30;5.35;;;12.40;96.70;;;;;;4910712;29;20057;-78
2023/11/09 02:10:11;;;;;;;8.85;5.30;;;12.50;96.70;;;;;;4894972;29;20048;-78
2023/11/09 02:12:39;;;;;;;8.60;5.45;;;12.40;96.70;;;;;;4893563;29;20052;-77
2023/11/09 02:15:10;;;;;;;6.70;4.88;;;12.50;96.70;;;;;;4916782;29;20524;-78
2023/11/09 02:17:39;;;;;;;10.90;5.45;;;12.50;96.70;;;;;;4902171;29;20057;-79
2023/11/09 02:20:09;;;;;;;8.27;5.20;;;12.60;96.70;;;;;;4903653;29;20052;-78
2023/11/09 02:22:39;;;;;;;12.98;5.65;;;12.60;96.70;;;;;;4906837;29;20581;-77
2023/11/09 02:25:09;;;;;;;9.13;4.90;;;12.50;96.70;;;;;;4909437;29;20056;-78
2023/11/09 02:27:37;;;;;;;10.30;5.05;;;12.40;96.70;;;;;;4910147;29;20119;-78
2023/11/09 02:30:06;;;;;;;9.00;5.05;;;12.40;96.70;;;;;;4928221;29;20047;-78
2023/11/09 02:32:34;;;;;;;8.65;4.85;;;12.40;96.70;;;;;;4885619;29;20044;-78
2023/11/09 02:35:04;;;;;;;9.43;5.25;;;12.40;96.70;;;;;;4910225;29;20574;-78
2023/11/09 02:37:32;;;;;;;9.32;5.32;;;12.50;96.70;;;;;;4895469;29;20044;-77
2023/11/09 02:40:00;;;;;;;8.98;4.90;;;12.40;96.70;;;;;;4918845;29;20051;-78
2023/11/09 02:42:30;;;;;;;7.43;4.63;;;12.40;96.70;;;;;;4910933;29;20051;-78
2023/11/09 02:44:58;;;;;;;8.40;5.20;;;12.50;96.70;;;;;;4921347;29;20043;-77
2023/11/09 02:47:26;;;;;;;7.13;5.03;;;12.60;96.70;;;;;;4936159;29;20044;-78
2023/11/09 02:49:53;;;;;;;7.05;4.43;;;12.60;96.70;;;;;;4908280;29;20050;-78
2023/11/09 02:52:21;;;;;;;7.63;4.50;;;12.60;96.70;;;;;;4909641;29;20055;-78
2023/11/09 02:54:50;;;;;;;10.23;4.80;;;12.60;96.70;;;;;;4903031;29;20047;-77
2023/11/09 02:57:18;;;;;;;7.32;4.43;;;12.60;96.70;;;;;;4906423;29;20088;-78
2023/11/09 02:59:48;;;;;;;8.10;4.18;;;12.60;96.70;;;;;;4907883;29;20147;-78
2023/11/09 03:02:16;;;;;;;6.38;4.30;;;12.60;96.70;;;;;;4906693;29;20108;-78
2023/11/09 03:04:44;;;;;;;6.95;4.35;;;12.70;96.70;;;;;;4915006;29;20044;-78
2023/11/09 03:07:13;;;;;;;6.63;4.90;;;12.70;96.70;;;;;;4914492;29;20052;-77
2023/11/09 03:09:41;;;;;;;6.93;4.32;;;12.70;96.70;;;;;;4899304;29;20040;-77
2023/11/09 03:12:09;;;;;;;7.63;4.38;;;12.60;96.70;;;;;;4891363;29;20058;-76
2023/11/09 03:14:37;;;;;;;6.85;4.82;;;12.60;96.70;;;;;;4912197;29;20044;-77
2023/11/09 03:17:08;;;;;;;7.65;4.82;;;12.60;96.70;;;;;;4925227;29;20481;-77
2023/11/09 03:19:37;;;;;;;9.85;4.53;;;12.50;96.70;;;;;;4916376;29;20647;-77
2023/11/09 03:22:10;;;;;;;10.18;4.88;;;12.40;96.70;;;;;;4890871;29;20052;-78
2023/11/09 03:24:41;;;;;;;9.25;5.38;;;12.40;96.70;;;;;;4901946;29;20116;-77
2023/11/09 03:27:10;;;;;;;8.00;4.82;;;12.40;96.70;;;;;;4905324;29;20044;-78
2023/11/09 03:29:38;;;;;;;10.43;6.18;;;12.40;96.70;;;;;;4914269;29;20054;-78
2023/11/09 03:32:09;;;;;;;9.02;5.30;;;12.40;96.70;;;;;;4900941;29;20046;-78
2023/11/09 03:34:37;;;;;;;8.75;5.63;;;12.40;96.70;;;;;;4914793;29;20047;-79
2023/11/09 03:37:07;;;;;;;8.48;4.93;;;12.50;96.70;;;;;;4914489;29;20116;-78
2023/11/09 03:39:35;;;;;;;8.65;5.28;;;12.50;96.70;;;;;;4907001;29;20068;-79
2023/11/09 03:42:03;;;;;;;8.77;4.75;;;12.50;96.70;;;;;;4920720;29;20633;-79
2023/11/09 03:44:37;;;;;;;8.38;4.55;;;12.50;96.70;;;;;;4906546;29;20052;-79
2023/11/09 03:47:07;;;;;;;7.90;4.30;;;12.50;96.70;;;;;;4910162;29;20518;-78
2023/11/09 03:49:39;;;;;;;6.28;4.07;;;12.50;96.70;;;;;;4903643;29;20036;-77
2023/11/09 03:52:07;;;;;;;5.93;4.13;;;12.50;96.70;;;;;;4906830;29;20521;-78
2023/11/09 03:54:35;;;;;;;8.52;4.35;;;12.50;96.70;;;;;;4912176;29;20371;-78
2023/11/09 03:57:03;;;;;;;7.30;4.32;;;12.50;96.70;;;;;;4918749;29;20545;-79
2023/11/09 03:59:31;;;;;;;6.70;4.38;;;12.60;96.70;;;;;;4909852;29;20410;-78
2023/11/09 04:01:59;;;;;;;7.18;3.92;;;12.50;96.70;;;;;;4917581;29;20055;-79
2023/11/09 04:04:28;;;;;;;10.90;4.55;;;12.50;96.70;;;;;;4917781;29;20430;-77
2023/11/09 04:06:58;;;;;;;8.52;4.53;;;12.60;96.70;;;;;;4908680;29;20054;-78
2023/11/09 04:09:25;;;;;;;5.55;3.45;;;12.60;96.70;;;;;;4926831;29;20616;-78
2023/11/09 04:11:54;;;;;;;6.95;4.32;;;12.60;96.70;;;;;;4926339;29;20043;-79
2023/11/09 04:14:22;;;;;;;7.38;4.45;;;12.60;96.70;;;;;;4894501;29;20444;-78
2023/11/09 04:16:49;;;;;;;7.28;4.35;;;12.60;96.70;;;;;;4901093;29;20098;-79
2023/11/09 04:19:19;;;;;;;6.75;4.05;;;12.60;96.70;;;;;;4912393;29;20410;-78
2023/11/09 04:21:49;;;;;;;7.15;3.90;;;12.60;96.70;;;;;;4908867;29;20048;-78
2023/11/09 04:24:17;;;;;;;5.03;3.70;;;12.60;96.70;;;;;;4919748;29;20039;-78
2023/11/09 04:26:45;;;;;;;5.40;3.33;;;12.60;96.70;;;;;;4913044;29;20055;-77
2023/11/09 04:29:13;;;;;;;7.00;3.45;;;12.60;96.70;;;;;;4912420;29;20039;-78
2023/11/09 04:31:42;;;;;;;6.97;4.22;;;12.60;96.70;;;;;;4897376;29;20418;-77
2023/11/09 04:34:10;;;;;;;4.40;3.33;;;12.60;96.70;;;;;;4896562;29;20051;-78
2023/11/09 04:36:49;;;;;;;6.65;4.20;;;12.70;96.70;;;;;;4914350;29;20570;-77
2023/11/09 04:39:28;;;;;;;9.02;4.80;;;12.60;96.70;;;;;;4896940;29;20071;-78
2023/11/09 04:41:59;;;;;;;10.38;5.00;;;12.60;96.70;;;;;;4929008;29;20100;-77
2023/11/09 04:44:28;;;;;;;8.15;5.28;;;12.50;96.70;;;;;;4909027;29;20052;-77
2023/11/09 04:46:57;;;;;;;9.07;5.38;;;12.40;96.70;;;;;;4914488;29;20052;-76
2023/11/09 04:49:25;;;;;;;10.80;6.32;;;12.40;96.70;;;;;;4921312;29;20131;-83
2023/11/09 04:51:54;;;;;;;13.13;6.68;;;12.40;96.70;;;;;;4933953;29;20044;-83
2023/11/09 04:54:24;;;;;;;13.35;6.72;;;12.40;96.70;;;;;;4925100;29;20468;-83
2023/11/09 05:07:29;;;;;;;14.10;7.97;;;12.40;96.70;;;;;;4907423;29;20949;-84
2023/11/09 05:10:00;;;;;;;13.43;7.82;;;12.40;96.70;;;;;;4912987;29;20082;-83
2023/11/09 05:12:28;;;;;;;11.77;7.35;;;12.40;96.70;;;;;;4897538;29;20569;-84
2023/11/09 05:14:56;;;;;;;13.98;7.30;;;12.40;96.70;;;;;;4914034;29;20123;-83
2023/11/09 05:17:23;;;;;;;12.07;8.02;;;12.50;96.70;;;;;;4894471;29;20048;-84
2023/11/09 05:19:51;;;;;;;14.55;7.30;;;12.50;96.70;;;;;;4888720;29;20051;-84
2023/11/09 05:22:19;;;;;;;13.38;7.07;;;12.50;96.70;;;;;;4912902;29;20052;-85
2023/11/09 05:24:47;;;;;;;11.65;7.75;;;12.50;96.70;;;;;;4904198;29;20135;-84
2023/11/09 05:27:17;;;;;;;15.13;7.13;;;12.50;96.70;;;;;;4909549;29;20059;-84
2023/11/09 05:29:46;;;;;;;12.30;6.80;;;12.50;96.70;;;;;;4912330;29;20046;-84
2023/11/09 05:32:14;;;;;;;11.30;6.32;;;12.50;96.70;;;;;;4912173;29;20048;-82
2023/11/09 05:34:42;;;;;;;11.05;6.93;;;12.50;96.70;;;;;;4896587;29;20064;-84
2023/11/09 05:37:10;;;;;;;7.80;6.30;;;12.50;96.70;;;;;;4912689;29;20045;-84
2023/11/09 05:39:38;;;;;;;11.52;5.63;;;12.50;96.70;;;;;;4913966;29;20044;-84
2023/11/09 05:42:09;;;;;;;8.00;6.68;;;12.60;96.70;;;;;;4914115;29;20048;-82
2023/11/09 05:44:38;;;;;;;9.95;6.05;;;12.60;96.70;;;;;;4896961;29;20119;-84
2023/11/09 05:47:06;;;;;;;13.10;6.18;;;12.60;96.70;;;;;;4910215;29;20095;-83
2023/11/09 05:49:33;;;;;;;10.75;5.93;;;12.60;96.70;;;;;;4914038;29;20056;-82
2023/11/09 05:52:03;;;;;;;8.95;5.80;;;12.60;96.70;;;;;;4916899;29;20531;-83
2023/11/09 05:54:31;;;;;;;9.50;5.30;;;12.60;96.70;;;;;;4911833;29;20044;-84
2023/11/09 05:56:59;;;;;;;7.32;4.80;;;12.60;96.70;;;;;;4924725;29;20052;-84
2023/11/09 05:59:27;;;;;;;8.77;5.20;;;12.60;96.70;;;;;;4930587;29;20526;-84
2023/11/09 06:01:56;;;;;;;7.22;5.10;;;12.70;96.70;;;;;;4932329;29;20666;-84
2023/11/09 06:04:27;;;;;;;6.95;4.97;;;12.70;96.70;;;;;;4915981;29;20142;-84
2023/11/09 06:06:56;;;;;;;7.70;4.95;;;12.70;96.70;;;;;;4896845;29;20135;-84
2023/11/09 06:09:25;;;;;;;5.93;4.38;;;12.70;96.70;;;;;;4914401;29;20055;-84
2023/11/09 06:11:54;;;;;;;6.63;4.40;;;12.70;96.70;;;;;;4915059;29;20099;-82
2023/11/09 06:14:22;;;;;;;5.72;4.20;;;12.70;96.70;;;;;;4899323;29;20581;-84
2023/11/09 06:16:50;;;;;;;7.10;4.90;;;12.80;96.70;;;;;;4896075;29;20047;-84
2023/11/09 06:19:21;;;;;;;6.47;4.28;;;12.80;96.70;;;;;;4911142;29;20087;-83
2023/11/09 06:21:51;;;;;;;6.07;4.18;;;12.80;96.70;;;;;;4901840;29;20052;-83
2023/11/09 06:24:19;;;;;;;7.68;3.83;;;12.80;96.70;;;;;;4899227;29;20509;-84
2023/11/09 06:26:46;;;;;;;8.02;4.15;;;12.80;96.70;;;;;;4914807;29;20044;-85
2023/11/09 06:29:14;;;;;;;5.85;3.65;;;12.90;96.70;;;;;;4931895;29;20078;-83
2023/11/09 06:31:43;;;;;;;5.68;3.80;;;12.90;96.70;;;;;;4914466;29;20047;-84
2023/11/09 06:34:14;;;;;;;5.10;3.38;;;12.90;96.70;;;;;;4931767;29;20047;-82
2023/11/09 06:36:47;;;;;;;5.03;3.55;;;12.90;96.70;;;;;;4895654;29;20043;-84
2023/11/09 06:39:16;;;;;;;4.88;3.47;;;12.90;96.70;;;;;;4909992;29;20517;-83
2023/11/09 06:41:45;;;;;;;5.85;3.38;;;13.00;96.70;;;;;;4930939;29;20048;-80
2023/11/09 06:44:13;;;;;;;6.20;3.58;;;13.00;96.70;;;;;;4911462;29;20082;-81
2023/11/09 06:46:41;;;;;;;5.32;3.25;;;13.00;96.70;;;;;;4930677;29;20230;-80
2023/11/09 06:49:09;;;;;;;4.75;3.20;;;13.00;96.70;;;;;;4913274;29;20047;-81
2023/11/09 06:51:37;;;;;;;5.57;2.95;;;13.00;96.70;;;;;;4935022;29;20048;-80
2023/11/09 06:54:08;;;;;;;5.07;3.55;;;13.10;96.70;;;;;;4913520;29;20107;-81
2023/11/09 06:56:37;;;;;;;5.53;3.60;;;13.10;96.70;;;;;;4912866;29;20060;-81
2023/11/09 06:59:05;;;;;;;5.72;3.50;;;13.10;96.70;;;;;;4913216;29;20053;-80
2023/11/09 07:01:34;;;;;;;6.05;3.72;;;13.10;96.70;;;;;;4913151;29;20119;-82
2023/11/09 07:04:04;;;;;;;5.30;3.80;;;13.10;96.70;;;;;;4897648;29;20051;-83
2023/11/09 07:06:32;;;;;;;6.68;3.42;;;13.10;96.70;;;;;;4897758;29;20111;-82
2023/11/09 07:09:00;;;;;;;8.23;4.22;;;13.20;96.70;;;;;;4901819;29;20086;-82
2023/11/09 07:11:31;;;;;;;6.43;3.65;;;13.20;96.70;;;;;;4902102;29;20133;-82
2023/11/09 07:14:01;;;;;;;5.43;3.35;;;13.20;96.70;;;;;;4914073;29;20051;-83
2023/11/09 07:16:29;;;;;;;4.20;3.20;;;13.30;96.70;;;;;;4894449;29;20197;-81
2023/11/09 07:18:57;;;;;;;5.30;3.33;;;13.30;96.70;;;;;;4929339;29;20056;-80
2023/11/09 07:21:25;;;;;;;6.13;3.42;;;13.30;96.70;;;;;;4916851;29;20044;-82
2023/11/09 07:24:01;;;;;;;6.82;2.75;;;13.40;96.70;;;;;;4930355;29;20048;-81
2023/11/09 07:26:30;;;;;;;3.38;2.50;;;13.40;96.70;;;;;;4929663;29;20118;-82
2023/11/09 07:28:58;;;;;;;3.47;2.38;;;13.40;96.70;;;;;;4912496;29;20110;-81
2023/11/09 07:31:26;;;;;;;3.65;2.40;;;13.50;96.70;;;;;;4930116;29;20490;-81
2023/11/09 07:33:54;;;;;;;3.72;1.90;;;13.40;96.70;;;;;;4929473;29;20140;-81
2023/11/09 07:36:22;;;;;;;2.38;1.80;;;13.40;96.70;;;;;;4912950;29;20126;-81
2023/11/09 07:38:50;;;;;;;3.75;2.15;;;13.40;96.70;;;;;;4896502;29;20054;-80
2023/11/09 07:41:18;;;;;;;2.63;1.85;;;13.40;96.70;;;;;;4896741;29;20058;-80
2023/11/09 07:43:47;;;;;;;3.95;2.03;;;13.40;96.70;;;;;;4913063;29;20043;-80
2023/11/09 07:46:15;;;;;;;3.47;2.10;;;13.40;96.70;;;;;;4919498;29;20075;-81
2023/11/09 07:48:42;;;;;;;2.78;2.08;;;13.40;96.70;;;;;;4916310;29;20050;-81
2023/11/09 07:51:10;;;;;;;3.88;2.42;;;13.30;96.70;;;;;;4920222;29;20118;-80
2023/11/09 07:53:38;;;;;;;4.60;2.80;;;13.30;96.70;;;;;;4920555;29;20136;-81
2023/11/09 07:56:06;;;;;;;3.13;2.42;;;13.30;96.70;;;;;;4899449;29;20074;-80
2023/11/09 07:58:34;;;;;;;4.03;2.58;;;13.30;96.70;;;;;;4908417;29;20052;-81
2023/11/09 08:01:06;;;;;;;3.75;2.75;;;13.30;96.70;;;;;;4916995;29;20491;-81
2023/11/09 08:03:34;;;;;;;4.88;3.00;;;13.40;96.70;;;;;;4900404;29;20044;-81
2023/11/09 08:06:02;;;;;;;4.43;2.80;;;13.40;96.70;;;;;;4912755;29;20520;-80
2023/11/09 08:08:30;;;;;;;2.90;2.53;;;13.40;96.70;;;;;;4933171;29;20097;-81
2023/11/09 08:10:58;;;;;;;3.45;2.60;;;13.40;96.70;;;;;;4933580;29;20051;-80
2023/11/09 08:13:28;;;;;;;5.22;2.63;;;13.40;96.70;;;;;;4907510;29;20143;-81
2023/11/09 08:15:58;;;;;;;4.30;2.33;;;13.40;96.70;;;;;;4916188;29;20153;-81
2023/11/09 08:18:28;;;;;;;4.45;2.42;;;13.40;96.70;;;;;;4916043;29;20064;-81
2023/11/09 08:20:57;;;;;;;5.65;2.80;;;13.50;96.70;;;;;;4900245;29;20056;-81
2023/11/09 08:23:24;;;;;;;4.38;3.28;;;13.50;96.70;;;;;;4933006;29;20043;-81
2023/11/09 08:25:53;;;;;;;4.55;3.38;;;13.50;96.70;;;;;;4915893;29;20067;-81
2023/11/09 08:28:21;;;;;;;6.15;3.33;;;13.50;96.70;;;;;;4900582;29;20047;-81
2023/11/09 08:30:51;;;;;;;5.10;3.42;;;13.40;96.70;;;;;;4895232;29;20403;-81
2023/11/09 08:33:23;;;;;;;4.30;3.42;;;13.50;96.70;;;;;;4916259;29;20044;-81
2023/11/09 08:35:53;;;;;;;4.68;3.47;;;13.50;96.70;;;;;;4916432;29;20079;-81
2023/11/09 08:38:22;;;;;;;4.45;3.13;;;13.50;96.70;;;;;;4900358;29;20087;-81
2023/11/09 08:40:51;;;;;;;5.50;3.40;;;13.60;96.70;;;;;;4933086;29;20043;-81
2023/11/09 08:43:19;;;;;;;5.97;3.58;;;13.60;96.70;;;;;;4916294;29;20055;-81
2023/11/09 08:45:47;;;;;;;7.72;3.20;;;13.70;96.70;;;;;;4916032;29;20418;-81
2023/11/09 08:48:15;;;;;;;5.57;2.85;;;13.80;96.70;;;;;;4915667;29;20063;-81
2023/11/09 08:50:45;;;;;;;4.97;2.90;;;13.90;96.70;;;;;;4916577;29;20063;-81
2023/11/09 08:53:14;;;;;;;5.55;2.35;;;14.10;96.70;;;;;;4915186;29;20122;-80
2023/11/09 08:55:43;;;;;;;4.82;2.78;;;14.30;96.70;;;;;;4899372;29;20047;-81
2023/11/09 08:58:11;;;;;;;6.25;2.92;;;14.50;96.70;;;;;;4899369;29;20114;-80
2023/11/09 09:00:39;;;;;;;6.13;2.90;;;14.70;96.70;;;;;;4915073;29;20490;-80
2023/11/09 09:03:08;;;;;;;3.88;2.58;;;14.90;96.70;;;;;;4915130;29;20055;-81
2023/11/09 09:05:37;;;;;;;5.30;2.33;;;15.00;96.70;;;;;;4925043;29;20063;-81
2023/11/09 09:08:06;;;;;;;5.45;2.35;;;15.00;96.70;;;;;;4907573;29;20853;-80
2023/11/09 09:10:38;;;;;;;4.28;1.90;;;15.00;96.70;;;;;;4899539;29;20052;-81
2023/11/09 09:13:07;;;;;;;4.85;1.80;;;15.00;96.70;;;;;;4911634;29;20824;-81
2023/11/09 09:15:35;;;;;;;3.20;1.70;;;15.00;96.70;;;;;;4914289;29;20059;-81
2023/11/09 09:18:09;;;;;;;4.32;1.80;;;14.90;96.70;;;;;;4906939;29;20082;-81
2023/11/09 09:20:38;;;;;;;5.10;2.15;;;14.80;96.70;;;;;;4914676;29;20063;-80
2023/11/09 09:23:07;;;;;;;3.25;1.42;;;14.90;96.70;;;;;;4899109;29;20423;-81
2023/11/09 09:25:38;;;;;;;3.80;1.60;;;14.90;96.70;;;;;;4914567;29;20521;-81
2023/11/09 09:28:09;;;;;;;3.40;1.50;;;15.00;96.70;;;;;;4923268;29;20047;-81
2023/11/09 09:30:37;;;;;;;5.32;2.03;;;15.20;96.70;;;;;;4899554;29;20146;-81
2023/11/09 09:33:07;;;;;;;3.22;1.52;;;15.50;96.70;;;;;;4931762;29;20095;-81
2023/11/09 09:35:35;;;;;;;3.80;1.65;;;15.50;96.70;;;;;;4932252;29;20054;-80
2023/11/09 09:38:15;;;;;;;4.25;1.52;;;15.60;96.70;;;;;;4931537;29;20048;-81
2023/11/09 09:40:49;;;;;;;3.60;1.58;;;15.60;96.70;;;;;;4911310;29;20043;-80
2023/11/09 09:43:22;;;;;;;2.63;1.40;;;15.60;96.70;;;;;;4931296;29;20095;-80
2023/11/09 09:45:57;;;;;;;3.40;1.20;;;15.80;96.70;;;;;;4931697;29;20058;-81
2023/11/09 09:48:29;;;;;;;3.45;1.75;;;15.70;96.70;;;;;;4895649;29;20140;-81
2023/11/09 09:50:59;;;;;;;4.30;1.80;;;15.80;96.70;;;;;;4909122;29;20150;-81
2023/11/09 09:53:28;;;;;;;3.53;1.58;;;15.80;96.70;;;;;;4914429;29;20048;-81
2023/11/09 09:55:57;;;;;;;3.10;1.25;;;15.70;96.70;;;;;;4911352;29;20057;-81
2023/11/09 09:58:26;;;;;;;3.75;1.80;;;15.70;96.70;;;;;;4916726;29;20047;-81
2023/11/09 10:00:58;;;;;;;3.20;1.55;;;15.90;96.70;;;;;;4913971;29;20058;-81
2023/11/09 10:03:27;;;;;;;5.32;1.73;;;16.00;96.70;;;;;;4913671;29;20130;-81
2023/11/09 10:05:55;;;;;;;6.32;2.10;;;15.90;96.70;;;;;;4914184;29;20066;-81
2023/11/09 10:08:23;;;;;;;3.88;1.25;;;15.80;96.70;;;;;;4908576;29;20493;-81
2023/11/09 10:10:54;;;;;;;3.63;1.40;;;15.70;96.70;;;;;;4928523;29;20470;-81
2023/11/09 10:13:27;;;;;;;2.63;1.52;;;15.80;96.70;;;;;;4898557;29;20471;-81
2023/11/09 10:15:57;;;;;;;4.97;1.58;;;15.90;96.70;;;;;;4921828;29;20055;-81
2023/11/09 10:18:26;;;;;;;2.38;1.58;;;16.10;96.70;;;;;;4908730;29;20082;-80
2023/11/09 10:20:55;;;;;;;5.25;1.77;;;16.10;96.70;;;;;;4901152;29;20043;-81
2023/11/09 10:23:23;;;;;;;3.97;1.50;;;16.20;96.70;;;;;;4911360;29;20079;-81
2023/11/09 10:25:52;;;;;;;3.95;1.65;;;16.50;96.70;;;;;;4913346;29;20047;-81
2023/11/09 10:28:21;;;;;;;3.38;1.55;;;16.50;96.70;;;;;;4905220;29;20109;-80
2023/11/09 10:30:51;;;;;;;4.93;1.65;;;16.60;96.70;;;;;;4930575;29;20048;-81
2023/11/09 10:33:19;;;;;;;6.00;1.63;;;16.70;96.70;;;;;;4897225;29;20048;-81
2023/11/09 10:35:47;;;;;;;4.13;1.85;;;16.80;96.70;;;;;;4913142;29;20516;-81
2023/11/09 10:38:20;;;;;;;4.95;1.70;;;16.90;96.70;;;;;;4938323;29;20048;-81
2023/11/09 10:40:48;;;;;;;2.92;1.20;;;16.70;96.70;;;;;;4912944;29;20158;-81
2023/11/09 10:43:37;;;;;;;3.72;1.58;;;16.60;96.70;;;;;;4929924;29;20048;-81
2023/11/09 10:46:08;;;;;;;2.50;1.50;;;16.70;96.70;;;;;;4915576;29;20146;-81
2023/11/09 10:48:40;;;;;;;2.42;1.23;;;16.80;96.70;;;;;;4897760;29;20060;-81
2023/11/09 10:51:09;;;;;;;3.58;1.33;;;16.90;96.70;;;;;;4914904;29;20425;-81
2023/11/09 10:53:41;;;;;;;2.38;1.30;;;17.00;96.70;;;;;;4929676;29;20063;-81
2023/11/09 10:56:13;;;;;;;3.20;1.77;;;17.10;96.70;;;;;;4929718;29;20714;-81
2023/11/09 10:58:44;;;;;;;3.08;1.27;;;17.20;96.70;;;;;;4911960;29;20067;-80
2023/11/09 11:01:22;;;;;;;5.10;1.98;;;17.50;96.70;;;;;;4912383;29;20450;-80
2023/11/09 11:03:53;;;;;;;;;;;17.60;96.70;;;;;;4912568;29;20150;-81
2023/11/09 11:06:26;;;;;;;4.22;1.90;;;17.60;96.70;;;;;;4912967;29;20390;-81
2023/11/09 11:09:00;;;;;;;4.07;1.65;;;17.80;96.70;;;;;;4896729;29;20048;-81
2023/11/09 11:11:30;;;;;;;3.83;1.70;;;17.80;96.70;;;;;;4904652;29;20051;-80
2023/11/09 11:14:03;;;;;;;3.13;1.50;;;17.80;96.70;;;;;;4914998;29;20078;-80
2023/11/09 11:17:11;;;;;;;3.55;1.45;;;18.00;96.70;;;;;;4938225;29;20092;-80
2023/11/09 11:20:12;;;;;;;3.88;1.60;;;18.20;96.70;;;;;;4908721;29;20398;-81
2023/11/09 11:22:55;;;;;;;5.18;1.85;;;18.20;96.70;;;;;;4896297;29;20063;-81
2023/11/09 11:25:35;;;;;;;4.72;1.98;;;18.00;96.70;;;;;;4897448;29;20052;-81
2023/11/09 11:28:05;;;;;;;3.97;1.65;;;18.00;96.70;;;;;;4897184;29;20056;-81
2023/11/09 11:30:38;;;;;;;4.25;2.08;;;18.10;96.70;;;;;;4896877;29;20398;-81
2023/11/09 11:33:13;;;;;;;7.13;2.08;;;18.10;96.70;;;;;;4935946;29;20050;-81
2023/11/09 11:35:43;;;;;;;5.50;2.50;;;18.20;96.70;;;;;;4937860;29;20079;-81
2023/11/09 11:38:23;;;;;;;3.72;1.75;;;18.30;96.70;;;;;;4912499;29;20099;-81
2023/11/09 11:40:57;;;;;;;4.90;1.75;;;18.40;96.70;;;;;;4929620;29;20073;-81
2023/11/09 11:43:36;;;;;;;4.10;1.40;;;18.60;96.70;;;;;;4915689;29;20055;-81
2023/11/09 11:46:07;;;;;;;5.10;1.30;;;18.60;96.70;;;;;;4895449;29;20142;-81
2023/11/09 11:48:41;;;;;;;3.35;1.58;;;18.80;96.70;;;;;;4927494;29;20071;-81
2023/11/09 11:51:10;;;;;;;5.30;1.85;;;18.90;96.70;;;;;;4907221;29;20044;-79
2023/11/09 11:53:43;;;;;;;3.47;1.65;;;19.00;96.70;;;;;;4918204;29;20043;-79
2023/11/09 11:56:14;;;;;;;4.20;1.73;;;18.90;96.70;;;;;;4912000;29;20150;-80
2023/11/09 11:58:47;;;;;;;3.55;1.73;;;18.90;96.70;;;;;;4913344;29;20055;-82
2023/11/09 12:01:20;;;;;;;2.95;1.60;;;18.90;96.70;;;;;;4913325;29;20114;-81
2023/11/09 12:04:05;;;;;;;4.68;1.42;;;18.80;96.70;;;;;;4906100;29;20048;-82
2023/11/09 12:06:37;;;;;;;5.13;2.15;;;18.60;96.70;;;;;;4923640;29;20550;-82
2023/11/09 12:09:10;;;;;;;2.92;1.60;;;18.50;96.70;;;;;;4897121;29;20833;-82
2023/11/09 12:11:44;;;;;;;2.17;1.33;;;18.30;96.70;;;;;;4912708;29;20099;-81
2023/11/09 12:14:13;;;;;;;4.40;1.60;;;18.30;96.70;;;;;;4896567;29;20055;-81
2023/11/09 12:16:41;;;;;;;3.58;1.50;;;18.20;96.70;;;;;;4896686;29;20047;-82
2023/11/09 12:19:11;;;;;;;2.80;1.40;;;18.00;96.70;;;;;;4885030;29;20048;-83
2023/11/09 12:21:41;;;;;;;6.25;1.92;;;17.90;96.70;;;;;;4930432;29;20134;-82
2023/11/09 12:24:12;;;;;;;3.35;1.48;;;17.90;96.70;;;;;;4929933;29;20047;-81
2023/11/09 12:26:42;;;;;;;4.90;1.65;;;18.00;96.70;;;;;;4896594;29;20052;-82
2023/11/09 12:29:11;;;;;;;4.78;1.60;;;18.00;96.70;;;;;;4914604;29;20055;-82
2023/11/09 12:31:39;;;;;;;3.33;1.70;;;18.10;96.70;;;;;;4929466;29;20130;-82
2023/11/09 12:34:10;;;;;;;4.72;1.30;;;18.00;96.70;;;;;;4896381;29;20420;-82
2023/11/09 12:36:41;;;;;;;2.30;1.30;;;18.00;96.70;;;;;;4929482;29;20114;-83
2023/11/09 12:41:52;;;;;;;5.57;1.50;;;17.80;96.70;;;;;;4931768;29;20846;-83
2023/11/09 12:44:24;;;;;;;3.92;1.50;;;17.80;96.70;;;;;;4916315;29;20510;-82
2023/11/09 12:46:55;;;;;;;3.88;1.52;;;17.80;96.70;;;;;;4916823;29;20123;-82
2023/11/09 12:49:27;;;;;;;3.15;1.48;;;17.80;96.70;;;;;;4916070;29;20047;-82
2023/11/09 12:51:56;;;;;;;5.32;1.55;;;17.70;96.70;;;;;;4902177;29;20051;-82
2023/11/09 12:54:24;;;;;;;3.30;1.45;;;17.60;96.70;;;;;;4901500;29;20043;-82
2023/11/09 12:56:56;;;;;;;3.13;1.55;;;17.60;96.70;;;;;;4896782;29;20056;-82
2023/11/09 12:59:28;;;;;;;3.13;1.38;;;17.60;96.70;;;;;;4912635;29;20048;-82
2023/11/09 13:02:02;;;;;;;4.32;1.58;;;17.50;96.70;;;;;;4912976;29;20163;-81
2023/11/09 13:04:41;;;;;;;4.97;1.77;;;17.50;96.70;;;;;;4904345;29;20051;-82
2023/11/09 13:07:12;;;;;;;4.10;1.55;;;17.50;96.70;;;;;;4912052;29;20507;-79
2023/11/09 13:09:41;;;;;;;4.28;1.63;;;17.50;96.70;;;;;;4913907;29;20507;-85
2023/11/09 13:17:51;;;;;;;3.53;1.80;;;17.40;96.70;;;;;;4911255;29;20040;-82